createdAt,value
2018-07-05T00:02:01.182Z,14.10
2018-07-05T00:04:41.035Z,14.00
2018-07-05T00:07:20.802Z,14.00
2018-07-05T00:10:00.667Z,14.00
2018-07-05T00:12:40.468Z,14.00
2018-07-05T00:15:20.178Z,13.90
2018-07-05T00:18:00.020Z,13.80
2018-07-05T00:20:39.786Z,13.80
2018-07-05T00:23:19.632Z,13.60
2018-07-05T00:25:59.401Z,13.60
2018-07-05T00:28:39.074Z,13.70
2018-07-05T00:31:18.837Z,13.70
2018-07-05T00:33:58.613Z,13.70
2018-07-05T00:39:12.334Z,13.80
2018-07-05T00:41:52.338Z,13.90
2018-07-05T00:44:32.062Z,13.90
2018-07-05T00:47:12.006Z,14.00
2018-07-05T00:49:51.793Z,14.10
2018-07-05T00:52:31.646Z,14.10
2018-07-05T00:55:11.566Z,14.20
2018-07-05T00:57:51.310Z,14.10
2018-07-05T01:00:31.199Z,14.10
2018-07-05T01:03:11.142Z,14.10
2018-07-05T01:05:50.950Z,14.10
2018-07-05T01:08:30.760Z,14.10
2018-07-05T01:11:10.764Z,14.10
2018-07-05T01:13:50.547Z,14.20
2018-07-05T01:16:30.403Z,14.10
2018-07-05T01:19:10.255Z,14.10
2018-07-05T01:21:50.210Z,14.00
2018-07-05T01:24:30.137Z,14.00
2018-07-05T01:27:09.894Z,13.90
2018-07-05T01:29:49.827Z,13.90
2018-07-05T01:32:29.730Z,13.90
2018-07-05T01:35:09.518Z,13.90
2018-07-05T01:37:49.438Z,13.80
2018-07-05T01:40:29.193Z,13.80
2018-07-05T01:43:08.988Z,13.80
2018-07-05T01:45:48.907Z,13.90
2018-07-05T01:48:28.774Z,13.90
2018-07-05T01:51:08.634Z,13.90
2018-07-05T01:56:22.266Z,14.00
2018-07-05T01:59:02.131Z,14.00
2018-07-05T02:04:15.861Z,14.10
2018-07-05T02:06:55.785Z,14.10
2018-07-05T02:09:35.659Z,14.00
2018-07-05T02:12:15.394Z,14.00
2018-07-05T02:14:55.265Z,14.00
2018-07-05T02:17:35.180Z,14.00
2018-07-05T02:20:15.058Z,14.00
2018-07-05T02:22:54.942Z,14.00
2018-07-05T02:25:34.599Z,14.00
2018-07-05T02:28:14.551Z,14.10
2018-07-05T02:30:54.330Z,14.10
2018-07-05T02:33:34.205Z,14.10
2018-07-05T02:36:14.039Z,14.20
2018-07-05T02:38:59.027Z,14.20
2018-07-05T02:41:38.925Z,14.30
2018-07-05T02:44:18.689Z,14.30
2018-07-05T02:46:58.604Z,14.20
2018-07-05T02:49:38.351Z,14.20
2018-07-05T02:52:18.045Z,14.20
2018-07-05T02:54:57.805Z,14.10
2018-07-05T02:57:37.581Z,14.10
2018-07-05T03:00:17.272Z,14.10
2018-07-05T03:02:57.029Z,14.10
2018-07-05T03:05:36.946Z,14.10
2018-07-05T03:08:16.779Z,14.10
2018-07-05T03:10:56.622Z,14.10
2018-07-05T03:13:36.518Z,14.00
2018-07-05T03:16:16.578Z,14.10
2018-07-05T03:21:30.139Z,14.20
2018-07-05T03:24:10.053Z,14.30
2018-07-05T03:26:49.730Z,14.30
2018-07-05T03:29:29.545Z,14.40
2018-07-05T03:32:09.245Z,14.50
2018-07-05T03:34:49.140Z,14.50
2018-07-05T03:37:29.015Z,14.50
2018-07-05T03:40:08.949Z,14.60
2018-07-05T03:42:48.585Z,14.70
2018-07-05T03:45:28.442Z,14.70
2018-07-05T03:48:08.429Z,14.90
2018-07-05T03:50:48.178Z,15.00
2018-07-05T03:53:28.150Z,15.10
2018-07-05T03:56:07.970Z,15.20
2018-07-05T03:58:47.695Z,15.30
2018-07-05T04:01:27.574Z,15.40
2018-07-05T04:04:07.485Z,15.40
2018-07-05T04:06:47.310Z,15.50
2018-07-05T04:09:27.131Z,15.50
2018-07-05T04:12:06.939Z,15.60
2018-07-05T04:14:46.746Z,15.60
2018-07-05T04:17:26.426Z,15.60
2018-07-05T04:20:06.337Z,15.60
2018-07-05T04:22:46.218Z,15.60
2018-07-05T04:27:59.757Z,15.60
2018-07-05T04:30:39.585Z,15.70
2018-07-05T04:35:53.219Z,15.90
2018-07-05T04:38:33.123Z,16.00
2018-07-05T04:41:12.930Z,16.20
2018-07-05T04:43:52.673Z,16.40
2018-07-05T04:46:32.362Z,16.50
2018-07-05T04:49:12.299Z,16.70
2018-07-05T04:51:52.150Z,16.70
2018-07-05T04:54:32.641Z,16.70
2018-07-05T04:57:12.514Z,16.60
2018-07-05T04:59:52.311Z,16.60
2018-07-05T05:02:32.128Z,16.60
2018-07-05T05:05:11.918Z,16.70
2018-07-05T05:07:54.810Z,16.70
2018-07-05T05:10:34.893Z,16.90
2018-07-05T05:13:14.954Z,17.00
2018-07-05T05:15:54.854Z,17.20
2018-07-05T05:18:35.005Z,17.50
2018-07-05T05:21:14.705Z,17.80
2018-07-05T05:23:54.545Z,18.00
2018-07-05T05:26:34.589Z,18.10
2018-07-05T05:29:14.426Z,18.20
2018-07-05T05:31:54.275Z,18.30
2018-07-05T05:34:34.094Z,18.30
2018-07-05T05:37:13.878Z,18.40
2018-07-05T05:39:53.562Z,18.30
2018-07-05T05:42:33.289Z,18.20
2018-07-05T05:45:13.101Z,18.20
2018-07-05T05:47:52.730Z,18.20
2018-07-05T05:50:32.662Z,18.20
2018-07-05T05:53:12.266Z,18.30
2018-07-05T05:55:52.180Z,18.50
2018-07-05T05:58:32.023Z,18.90
2018-07-05T06:01:11.860Z,19.20
2018-07-05T06:03:51.650Z,19.40
2018-07-05T06:06:31.261Z,19.30
2018-07-05T06:09:11.142Z,19.30
2018-07-05T06:11:50.987Z,19.40
2018-07-05T06:14:30.725Z,19.20
2018-07-05T06:17:10.525Z,19.30
2018-07-05T06:19:50.290Z,19.20
2018-07-05T06:22:29.981Z,19.30
2018-07-05T06:25:09.749Z,19.30
2018-07-05T06:27:49.570Z,19.30
2018-07-05T06:30:29.303Z,19.30
2018-07-05T06:33:09.137Z,19.30
2018-07-05T06:35:48.924Z,19.50
2018-07-05T06:38:28.649Z,19.50
2018-07-05T06:41:08.507Z,19.60
2018-07-05T06:43:48.279Z,19.60
2018-07-05T06:46:28.137Z,19.60
2018-07-05T06:49:07.945Z,19.70
2018-07-05T06:51:47.639Z,19.80
2018-07-05T06:54:27.466Z,19.90
2018-07-05T06:57:07.227Z,19.90
2018-07-05T06:59:47.090Z,20.00
2018-07-05T07:02:26.995Z,19.90
2018-07-05T07:05:06.827Z,20.00
2018-07-05T07:07:46.557Z,20.00
2018-07-05T07:10:26.468Z,20.10
2018-07-05T07:13:06.341Z,20.10
2018-07-05T07:15:46.107Z,20.20
2018-07-05T07:18:25.805Z,20.20
2018-07-05T07:21:05.679Z,20.20
2018-07-05T07:23:45.564Z,20.20
2018-07-05T07:26:25.445Z,20.10
2018-07-05T07:29:05.314Z,20.20
2018-07-05T07:31:45.153Z,20.00
2018-07-05T07:34:24.831Z,19.90
2018-07-05T07:37:04.691Z,19.80
2018-07-05T07:39:44.515Z,19.90
2018-07-05T07:42:11.958Z,19.80
2018-07-05T07:44:39.405Z,19.70
2018-07-05T07:47:06.891Z,19.90
2018-07-05T07:49:34.325Z,20.00
2018-07-05T07:52:01.790Z,20.20
2018-07-05T07:54:29.357Z,20.30
2018-07-05T07:56:56.810Z,20.30
2018-07-05T07:59:24.258Z,20.40
2018-07-05T08:04:19.470Z,20.30
2018-07-05T08:06:46.918Z,20.30
2018-07-05T08:09:14.365Z,20.20
2018-07-05T08:11:41.802Z,20.30
2018-07-05T08:14:09.258Z,20.20
2018-07-05T08:16:36.775Z,20.70
2018-07-05T08:19:04.208Z,20.60
2018-07-05T08:21:31.686Z,20.80
2018-07-05T08:23:59.151Z,20.90
2018-07-05T08:26:26.597Z,20.90
2018-07-05T08:28:54.065Z,20.90
2018-07-05T08:31:21.548Z,20.80
2018-07-05T08:33:49.017Z,20.80
2018-07-05T08:36:16.469Z,20.90
2018-07-05T08:38:43.931Z,20.90
2018-07-05T08:41:11.461Z,21.00
2018-07-05T08:43:39.036Z,21.20
2018-07-05T08:46:06.520Z,21.40
2018-07-05T08:48:34.013Z,21.20
2018-07-05T08:51:01.516Z,21.10
2018-07-05T08:53:28.969Z,21.30
2018-07-05T08:55:56.461Z,21.20
2018-07-05T08:58:23.995Z,21.20
2018-07-05T09:00:51.425Z,21.20
2018-07-05T09:03:19.030Z,21.40
2018-07-05T09:05:46.595Z,21.60
2018-07-05T09:08:14.071Z,21.70
2018-07-05T09:10:41.514Z,21.70
2018-07-05T09:13:08.954Z,21.70
2018-07-05T09:15:36.411Z,21.70
2018-07-05T09:18:03.903Z,21.00
2018-07-05T09:20:31.330Z,21.00
2018-07-05T09:22:58.788Z,20.90
2018-07-05T09:25:26.254Z,21.20
2018-07-05T09:27:53.695Z,21.30
2018-07-05T09:30:21.140Z,21.30
2018-07-05T09:32:48.662Z,21.30
2018-07-05T09:35:16.106Z,21.40
2018-07-05T09:37:43.622Z,21.40
2018-07-05T09:40:11.081Z,21.50
2018-07-05T09:42:38.533Z,21.60
2018-07-05T09:45:06.028Z,21.60
2018-07-05T09:47:33.482Z,21.60
2018-07-05T09:50:00.987Z,21.10
2018-07-05T09:52:28.498Z,21.50
2018-07-05T09:54:55.978Z,21.60
2018-07-05T09:57:23.415Z,21.90
2018-07-05T09:59:50.905Z,22.20
2018-07-05T10:02:18.357Z,22.30
2018-07-05T10:04:45.826Z,22.10
2018-07-05T10:07:13.282Z,22.30
2018-07-05T10:09:40.735Z,21.80
2018-07-05T10:12:08.183Z,21.80
2018-07-05T10:14:35.639Z,21.50
2018-07-05T10:17:03.154Z,21.50
2018-07-05T10:19:30.671Z,21.80
2018-07-05T10:21:58.106Z,21.70
2018-07-05T10:24:25.562Z,21.90
2018-07-05T10:26:53.097Z,22.20
2018-07-05T10:29:32.914Z,22.10
2018-07-05T10:32:12.655Z,22.20
2018-07-05T10:34:40.109Z,21.80
2018-07-05T10:37:07.566Z,21.70
2018-07-05T10:39:35.061Z,21.50
2018-07-05T10:42:14.899Z,21.40
2018-07-05T10:44:54.612Z,21.20
2018-07-05T10:47:34.461Z,21.10
2018-07-05T10:50:14.098Z,20.70
2018-07-05T10:52:53.867Z,21.00
2018-07-05T10:55:33.575Z,20.90
2018-07-05T10:58:13.425Z,20.90
2018-07-05T11:00:53.211Z,21.30
2018-07-05T11:03:33.114Z,21.20
2018-07-05T11:06:12.920Z,21.60
2018-07-05T11:08:52.774Z,21.40
2018-07-05T11:11:32.502Z,21.20
2018-07-05T11:14:12.742Z,21.30
2018-07-05T11:16:52.478Z,20.90
2018-07-05T11:19:32.235Z,20.90
2018-07-05T11:22:11.969Z,20.70
2018-07-05T11:24:51.822Z,20.80
2018-07-05T11:27:31.585Z,20.70
2018-07-05T11:30:11.529Z,21.00
2018-07-05T11:32:51.234Z,21.00
2018-07-05T11:35:31.177Z,21.00
2018-07-05T11:38:10.897Z,21.00
2018-07-05T11:43:24.497Z,21.10
2018-07-05T11:46:04.332Z,21.20
2018-07-05T11:48:44.093Z,21.50
2018-07-05T11:51:23.831Z,21.30
2018-07-05T11:54:03.590Z,21.50
2018-07-05T11:56:43.435Z,21.60
2018-07-05T11:59:23.371Z,21.70
2018-07-05T12:02:03.275Z,21.70
2018-07-05T12:04:43.178Z,21.80
2018-07-05T12:07:22.987Z,21.30
2018-07-05T12:10:02.806Z,21.30
2018-07-05T12:12:42.634Z,21.40
2018-07-05T12:15:22.481Z,21.20
2018-07-05T12:18:02.418Z,21.30
2018-07-05T12:20:42.274Z,21.10
2018-07-05T12:23:22.075Z,21.20
2018-07-05T12:26:02.058Z,21.30
2018-07-05T12:28:41.933Z,20.90
2018-07-05T12:31:21.609Z,20.70
2018-07-05T12:34:01.418Z,20.80
2018-07-05T12:36:41.137Z,21.00
2018-07-05T12:39:20.927Z,21.00
2018-07-05T12:42:00.610Z,20.60
2018-07-05T12:44:40.430Z,20.50
2018-07-05T12:47:20.213Z,20.50
2018-07-05T12:50:00.060Z,20.40
2018-07-05T12:52:39.951Z,20.30
2018-07-05T12:55:19.786Z,20.30
2018-07-05T12:57:59.706Z,20.20
2018-07-05T13:00:39.403Z,20.40
2018-07-05T13:03:19.229Z,20.60
2018-07-05T13:05:59.140Z,20.50
2018-07-05T13:08:38.721Z,20.50
2018-07-05T13:11:18.549Z,20.70
2018-07-05T13:13:58.293Z,20.90
2018-07-05T13:16:38.011Z,22.30
2018-07-05T13:21:51.444Z,23.90
2018-07-05T13:24:31.277Z,23.20
2018-07-05T13:27:11.066Z,24.50
2018-07-05T13:29:50.898Z,26.60
2018-07-05T13:32:30.622Z,27.20
2018-07-05T13:35:10.494Z,28.40
2018-07-05T13:37:50.257Z,29.60
2018-07-05T13:40:30.093Z,30.10
2018-07-05T13:43:09.783Z,28.60
2018-07-05T13:45:50.405Z,29.70
2018-07-05T13:48:30.306Z,29.00
2018-07-05T13:51:10.101Z,29.40
2018-07-05T13:53:49.910Z,29.60
2018-07-05T13:56:29.662Z,28.90
2018-07-05T13:59:09.494Z,29.10
2018-07-05T14:01:49.276Z,28.50
2018-07-05T14:04:29.023Z,29.60
2018-07-05T14:07:08.859Z,30.00
2018-07-05T14:09:48.702Z,29.30
2018-07-05T14:12:28.290Z,29.80
2018-07-05T14:15:08.093Z,29.60
2018-07-05T14:17:47.910Z,29.30
2018-07-05T14:20:27.909Z,29.50
2018-07-05T14:23:07.617Z,28.80
2018-07-05T14:25:47.457Z,28.90
2018-07-05T14:28:27.198Z,28.70
2018-07-05T14:31:07.002Z,28.70
2018-07-05T14:33:46.796Z,29.00
2018-07-05T14:36:26.636Z,28.20
2018-07-05T14:39:06.656Z,28.40
2018-07-05T14:41:46.823Z,28.20
2018-07-05T14:44:26.778Z,27.10
2018-07-05T14:47:06.629Z,26.90
2018-07-05T14:49:46.347Z,26.90
2018-07-05T14:52:26.166Z,26.90
2018-07-05T14:55:05.956Z,27.00
2018-07-05T14:57:45.638Z,26.70
2018-07-05T15:00:25.458Z,26.70
2018-07-05T15:03:05.055Z,27.20
2018-07-05T15:05:44.822Z,27.20
2018-07-05T15:08:24.677Z,27.30
2018-07-05T15:11:04.516Z,27.50
2018-07-05T15:13:45.279Z,27.20
2018-07-05T15:16:25.787Z,27.40
2018-07-05T15:19:05.434Z,26.60
2018-07-05T15:21:45.304Z,27.00
2018-07-05T15:24:25.038Z,27.10
2018-07-05T15:27:04.707Z,27.20
2018-07-05T15:29:44.434Z,27.20
2018-07-05T15:32:24.400Z,27.20
2018-07-05T15:35:04.049Z,27.10
2018-07-05T15:37:44.022Z,26.90
2018-07-05T15:40:23.738Z,27.00
2018-07-05T15:43:03.464Z,26.80
2018-07-05T15:45:43.288Z,26.90
2018-07-05T15:48:23.126Z,26.40
2018-07-05T15:51:03.711Z,26.60
2018-07-05T15:53:43.965Z,26.40
2018-07-05T15:56:23.678Z,26.20
2018-07-05T15:59:03.344Z,25.90
2018-07-05T16:01:43.085Z,25.50
2018-07-05T16:04:22.965Z,25.00
2018-07-05T16:07:02.745Z,23.70
2018-07-05T16:09:42.865Z,23.00
2018-07-05T16:12:22.658Z,22.60
2018-07-05T16:15:02.562Z,22.30
2018-07-05T16:17:42.466Z,22.00
2018-07-05T16:20:22.257Z,21.90
2018-07-05T16:23:01.934Z,21.50
2018-07-05T16:25:41.699Z,21.30
2018-07-05T16:28:21.531Z,21.30
2018-07-05T16:31:01.124Z,21.20
2018-07-05T16:33:40.822Z,20.70
2018-07-05T16:36:20.566Z,20.60
2018-07-05T16:39:00.343Z,20.20
2018-07-05T16:41:40.205Z,20.20
2018-07-05T16:44:19.948Z,20.00
2018-07-05T16:46:59.658Z,20.00
2018-07-05T16:49:39.510Z,19.90
2018-07-05T16:52:19.126Z,20.00
2018-07-05T16:54:58.777Z,19.90
2018-07-05T16:57:38.710Z,19.90
2018-07-05T17:00:18.566Z,19.80
2018-07-05T17:02:58.386Z,19.80
2018-07-05T17:05:38.269Z,19.80
2018-07-05T17:10:51.781Z,19.60
2018-07-05T17:13:31.570Z,19.50
2018-07-05T17:16:11.538Z,19.30
2018-07-05T17:18:51.498Z,19.40
2018-07-05T17:21:31.333Z,19.30
2018-07-05T17:24:11.149Z,19.40
2018-07-05T17:26:50.957Z,19.30
2018-07-05T17:29:30.710Z,19.30
2018-07-05T17:34:44.898Z,19.30
2018-07-05T17:37:24.545Z,19.40
2018-07-05T17:40:04.253Z,19.40
2018-07-05T17:42:44.039Z,19.30
2018-07-05T17:45:23.631Z,19.30
2018-07-05T17:48:03.376Z,19.30
2018-07-05T17:50:43.172Z,19.30
2018-07-05T17:53:22.945Z,19.20
2018-07-05T17:56:02.770Z,19.20
2018-07-05T17:58:42.553Z,19.20
2018-07-05T18:01:22.625Z,19.10
2018-07-05T18:04:02.405Z,19.20
2018-07-05T18:06:42.126Z,19.10
2018-07-05T18:09:21.999Z,19.20
2018-07-05T18:12:01.685Z,19.10
2018-07-05T18:14:41.377Z,19.10
2018-07-05T18:17:21.502Z,19.00
2018-07-05T18:20:01.351Z,19.00
2018-07-05T18:22:41.020Z,18.90
2018-07-05T18:25:21.014Z,18.90
2018-07-05T18:28:00.798Z,18.90
2018-07-05T18:30:40.513Z,18.90
2018-07-05T18:33:20.286Z,18.80
2018-07-05T18:36:00.234Z,18.80
2018-07-05T18:38:40.054Z,18.80
2018-07-05T18:41:19.990Z,18.80
2018-07-05T18:43:59.720Z,18.70
2018-07-05T18:49:13.326Z,18.70
2018-07-05T18:51:53.098Z,18.70
2018-07-05T18:54:32.934Z,18.70
2018-07-05T18:57:12.745Z,18.60
2018-07-05T18:59:52.637Z,18.50
2018-07-05T19:02:32.382Z,18.60
2018-07-05T19:05:12.190Z,18.50
2018-07-05T19:07:52.007Z,18.40
2018-07-05T19:10:31.894Z,18.40
2018-07-05T19:13:11.805Z,18.40
2018-07-05T19:15:51.592Z,18.30
2018-07-05T19:18:31.471Z,18.20
2018-07-05T19:21:11.276Z,18.10
2018-07-05T19:23:51.007Z,18.10
2018-07-05T19:26:30.657Z,18.00
2018-07-05T19:29:10.418Z,17.90
2018-07-05T19:31:50.185Z,17.90
2018-07-05T19:34:29.866Z,17.80
2018-07-05T19:37:09.647Z,17.80
2018-07-05T19:39:49.314Z,17.70
2018-07-05T19:42:29.127Z,17.70
2018-07-05T19:45:08.968Z,17.70
2018-07-05T19:47:48.834Z,17.70
2018-07-05T19:50:28.526Z,17.70
2018-07-05T19:53:08.361Z,17.70
2018-07-05T19:58:21.888Z,17.60
2018-07-05T20:01:01.767Z,17.60
2018-07-05T20:03:41.592Z,17.60
2018-07-05T20:06:21.419Z,17.50
2018-07-05T20:09:01.359Z,17.40
2018-07-05T20:11:46.593Z,17.40
2018-07-05T20:14:26.227Z,17.30
2018-07-05T20:17:05.980Z,17.20
2018-07-05T20:19:45.820Z,17.10
2018-07-05T20:22:25.632Z,17.00
2018-07-05T20:25:05.461Z,17.00
2018-07-05T20:27:45.329Z,16.90
2018-07-05T20:30:25.236Z,16.90
2018-07-05T20:33:05.054Z,16.70
2018-07-05T20:35:44.973Z,16.70
2018-07-05T20:38:24.694Z,16.60
2018-07-05T20:41:04.424Z,16.60
2018-07-05T20:43:44.302Z,16.50
2018-07-05T20:46:24.172Z,16.50
2018-07-05T20:49:03.853Z,16.50
2018-07-05T20:51:43.677Z,16.50
2018-07-05T20:54:23.429Z,16.50
2018-07-05T20:57:03.232Z,16.50
2018-07-05T20:59:43.087Z,16.40
2018-07-05T21:02:22.938Z,16.40
2018-07-05T21:05:02.790Z,16.40
2018-07-05T21:07:42.606Z,16.30
2018-07-05T21:10:22.318Z,16.30
2018-07-05T21:13:02.162Z,16.30
2018-07-05T21:15:42.033Z,16.30
2018-07-05T21:18:21.827Z,16.30
2018-07-05T21:21:01.671Z,16.20
2018-07-05T21:23:41.554Z,16.20
2018-07-05T21:26:21.305Z,16.30
2018-07-05T21:29:01.106Z,16.30
2018-07-05T21:31:40.866Z,16.30
2018-07-05T21:34:20.698Z,16.40
2018-07-05T21:37:00.578Z,16.40
2018-07-05T21:42:14.241Z,16.40
2018-07-05T21:44:53.918Z,16.40
2018-07-05T21:47:33.649Z,16.40
2018-07-05T21:50:13.893Z,16.40
2018-07-05T21:52:53.510Z,16.30
2018-07-05T21:58:06.993Z,16.30
2018-07-05T22:00:46.722Z,16.40
2018-07-05T22:03:26.566Z,16.40
2018-07-05T22:06:06.302Z,16.50
2018-07-05T22:08:46.028Z,16.50
2018-07-05T22:11:25.965Z,16.50
2018-07-05T22:14:05.780Z,16.50
2018-07-05T22:16:50.939Z,16.50
2018-07-05T22:19:36.046Z,16.50
2018-07-05T22:22:21.078Z,16.60
2018-07-05T22:25:06.276Z,16.60
2018-07-05T22:27:51.234Z,16.70
2018-07-05T22:30:36.283Z,16.70
2018-07-05T22:33:16.213Z,16.60
2018-07-05T22:35:56.021Z,16.70
2018-07-05T22:38:35.775Z,16.70
2018-07-05T22:41:15.658Z,16.70
2018-07-05T22:43:55.518Z,16.70
2018-07-05T22:46:35.417Z,16.60
2018-07-05T22:49:15.291Z,16.60
2018-07-05T22:51:55.033Z,16.50
2018-07-05T22:54:34.952Z,16.40
2018-07-05T22:57:14.712Z,16.40
2018-07-05T22:59:54.477Z,16.30
2018-07-05T23:05:08.190Z,16.20
2018-07-05T23:07:48.019Z,16.10
2018-07-05T23:10:27.878Z,16.10
2018-07-05T23:13:07.687Z,16.00
2018-07-05T23:15:47.441Z,15.90
2018-07-05T23:18:27.279Z,15.80
2018-07-05T23:21:07.039Z,15.70
2018-07-05T23:23:46.746Z,15.60
2018-07-05T23:26:26.654Z,15.50
2018-07-05T23:29:06.518Z,15.40
2018-07-05T23:31:46.315Z,15.30
2018-07-05T23:34:26.178Z,15.20
2018-07-05T23:37:06.042Z,15.10
2018-07-05T23:39:45.711Z,15.00
2018-07-05T23:42:25.537Z,14.90
2018-07-05T23:45:05.179Z,14.80
2018-07-05T23:47:44.893Z,14.80
2018-07-05T23:50:24.718Z,14.80
2018-07-05T23:55:38.213Z,14.70
2018-07-05T23:58:18.106Z,14.70
